Snoqualmie River: North Fork station

back to: Snoqualmie river
North Fork station Summary - (NOAA Hydrograph: SNQW1)
Latest reading:
Sun12/17 05:15 am 2.81 ft 234 cfs (steady)
Past 24hr max:
Sat12/16 06:30 am 2.86 ft 247 cfs
Forecasted crests: (published Sat 12/16/17 03:15 pm)
Mon12/18 10:00 am 6.89 ft 3300 cfs
Tue12/19 10:00 pm 6.94 ft 3358 cfs

North Fork station Details

Latest Readings

Last 100 Readings:
Sun12/17 05:15 am 2.81 ft 234 cfs
Sun12/17 05:00 am 2.81 ft 234 cfs
Sun12/17 04:45 am 2.81 ft 234 cfs
Sun12/17 04:30 am 2.81 ft 234 cfs
Sun12/17 04:15 am 2.81 ft 234 cfs
Sun12/17 04:00 am 2.81 ft 234 cfs
Sun12/17 03:45 am 2.81 ft 234 cfs
Sun12/17 03:30 am 2.81 ft 234 cfs
Sun12/17 03:15 am 2.8 ft 231 cfs
Sun12/17 03:00 am 2.8 ft 231 cfs
Sun12/17 02:45 am 2.8 ft 231 cfs
Sun12/17 02:30 am 2.8 ft 231 cfs
Sun12/17 02:15 am 2.8 ft 231 cfs
Sun12/17 02:00 am 2.8 ft 231 cfs
Sun12/17 01:45 am 2.8 ft 231 cfs
Sun12/17 01:30 am 2.8 ft 231 cfs
Sun12/17 01:15 am 2.8 ft 231 cfs
Sun12/17 01:00 am 2.79 ft 228 cfs
Sun12/17 12:45 am 2.8 ft 231 cfs
Sun12/17 12:30 am 2.8 ft 231 cfs
Sun12/17 12:15 am 2.8 ft 231 cfs
Sun12/17 12:00 am 2.8 ft 231 cfs
Sat12/16 11:45 pm 2.8 ft 231 cfs
Sat12/16 11:30 pm 2.8 ft 231 cfs
Sat12/16 11:15 pm 2.8 ft 231 cfs
Sat12/16 11:00 pm 2.8 ft 231 cfs
Sat12/16 10:45 pm 2.8 ft 231 cfs
Sat12/16 10:30 pm 2.8 ft 231 cfs
Sat12/16 10:15 pm 2.8 ft 231 cfs
Sat12/16 10:00 pm 2.8 ft 231 cfs
Sat12/16 09:45 pm 2.8 ft 231 cfs
Sat12/16 09:30 pm 2.8 ft 231 cfs
Sat12/16 09:15 pm 2.8 ft 231 cfs
Sat12/16 09:00 pm 2.8 ft 231 cfs
Sat12/16 08:45 pm 2.8 ft 231 cfs
Sat12/16 08:30 pm 2.8 ft 231 cfs
Sat12/16 08:15 pm 2.8 ft 231 cfs
Sat12/16 08:00 pm 2.8 ft 231 cfs
Sat12/16 07:45 pm 2.8 ft 231 cfs
Sat12/16 07:30 pm 2.81 ft 234 cfs
Sat12/16 07:15 pm 2.8 ft 231 cfs
Sat12/16 07:00 pm 2.8 ft 231 cfs
Sat12/16 06:45 pm 2.81 ft 234 cfs
Sat12/16 06:30 pm 2.81 ft 234 cfs
Sat12/16 06:15 pm 2.81 ft 234 cfs
Sat12/16 06:00 pm 2.81 ft 234 cfs
Sat12/16 05:45 pm 2.81 ft 234 cfs
Sat12/16 05:30 pm 2.8 ft 231 cfs
Sat12/16 05:15 pm 2.81 ft 234 cfs
Sat12/16 05:00 pm 2.81 ft 234 cfs
Sat12/16 04:45 pm 2.81 ft 234 cfs
Sat12/16 04:30 pm 2.82 ft 236 cfs
Sat12/16 04:15 pm 2.81 ft 234 cfs
Sat12/16 04:00 pm 2.81 ft 234 cfs
Sat12/16 03:45 pm 2.81 ft 234 cfs
Sat12/16 03:30 pm 2.81 ft 234 cfs
Sat12/16 03:15 pm 2.82 ft 236 cfs
Sat12/16 03:00 pm 2.81 ft 234 cfs
Sat12/16 02:45 pm 2.82 ft 236 cfs
Sat12/16 02:30 pm 2.82 ft 236 cfs
Sat12/16 01:15 pm 2.82 ft 236 cfs
Sat12/16 01:00 pm 2.82 ft 236 cfs
Sat12/16 12:45 pm 2.82 ft 236 cfs
Sat12/16 12:30 pm 2.83 ft 239 cfs
Sat12/16 12:15 pm 2.83 ft 239 cfs
Sat12/16 12:00 pm 2.83 ft 239 cfs
Sat12/16 11:45 am 2.83 ft 239 cfs
Sat12/16 11:30 am 2.83 ft 239 cfs
Sat12/16 11:15 am 2.83 ft 239 cfs
Sat12/16 11:00 am 2.84 ft 242 cfs
Sat12/16 10:45 am 2.83 ft 239 cfs
Sat12/16 10:30 am 2.84 ft 242 cfs
Sat12/16 10:15 am 2.84 ft 242 cfs
Sat12/16 10:00 am 2.84 ft 242 cfs
Sat12/16 09:45 am 2.84 ft 242 cfs
Sat12/16 09:30 am 2.84 ft 242 cfs
Sat12/16 09:15 am 2.85 ft 244 cfs
Sat12/16 09:00 am 2.85 ft 244 cfs
Sat12/16 08:45 am 2.85 ft 244 cfs
Sat12/16 08:30 am 2.85 ft 244 cfs
Sat12/16 08:15 am 2.85 ft 244 cfs
Sat12/16 08:00 am 2.85 ft 244 cfs
Sat12/16 07:45 am 2.85 ft 244 cfs
Sat12/16 07:30 am 2.85 ft 244 cfs
Sat12/16 07:15 am 2.85 ft 244 cfs
Sat12/16 07:00 am 2.85 ft 244 cfs
Sat12/16 06:45 am 2.84 ft 242 cfs
Sat12/16 06:30 am 2.86 ft 247 cfs
Sat12/16 06:15 am 2.85 ft 244 cfs
Sat12/16 06:00 am 2.85 ft 244 cfs
Sat12/16 05:45 am 2.85 ft 244 cfs
Sat12/16 05:30 am 2.85 ft 244 cfs
Sat12/16 05:15 am 2.84 ft 242 cfs
Sat12/16 05:00 am 2.85 ft 244 cfs
Sat12/16 04:45 am 2.85 ft 244 cfs
Sat12/16 04:30 am 2.85 ft 244 cfs
Sat12/16 04:15 am 2.85 ft 244 cfs
Sat12/16 04:00 am 2.85 ft 244 cfs
Sat12/16 03:45 am 2.86 ft 247 cfs
Sat12/16 03:30 am 2.85 ft 244 cfs

Latest Forecasts

Currently Forecasted Readings:
Sat12/16 04:00 pm 2.83 ft 238 cfs
Sat12/16 10:00 pm 2.83 ft 240 cfs
Sun12/17 04:00 am 2.86 ft 247 cfs
Sun12/17 10:00 am 3.09 ft 317 cfs
Sun12/17 04:00 pm 3.63 ft 527 cfs
Sun12/17 10:00 pm 4.64 ft 1099 cfs
Mon12/18 04:00 am 6.54 ft 2871 cfs
Mon12/18 10:00 am 6.89 ft 3300 cfs
Mon12/18 04:00 pm 5.83 ft 2096 cfs
Mon12/18 10:00 pm 5.33 ft 1632 cfs
Tue12/19 04:00 am 4.99 ft 1353 cfs
Tue12/19 10:00 am 5.02 ft 1378 cfs
Tue12/19 04:00 pm 5.6 ft 1876 cfs
Tue12/19 10:00 pm 6.94 ft 3358 cfs
Wed12/20 04:00 am 6.08 ft 2359 cfs
Wed12/20 10:00 am 5.49 ft 1779 cfs
Wed12/20 04:00 pm 5.06 ft 1407 cfs
Wed12/20 10:00 pm 4.71 ft 1152 cfs
Thu12/21 04:00 am 4.46 ft 980 cfs
Thu12/21 10:00 am 4.25 ft 854 cfs
Thu12/21 04:00 pm 4.06 ft 747 cfs
Thu12/21 10:00 pm 3.93 ft 675 cfs
Fri12/22 04:00 am 3.82 ft 621 cfs
Fri12/22 10:00 am 3.73 ft 575 cfs
Fri12/22 04:00 pm 3.64 ft 534 cfs
Fri12/22 10:00 pm 3.57 ft 501 cfs
Sat12/23 04:00 am 3.5 ft 471 cfs
Sat12/23 10:00 am 3.43 ft 444 cfs
Sat12/23 04:00 pm 3.37 ft 419 cfs
Sat12/23 10:00 pm 3.31 ft 398 cfs
Sun12/24 04:00 am 3.26 ft 377 cfs
Sun12/24 10:00 am 3.21 ft 359 cfs
Sun12/24 04:00 pm 3.16 ft 343 cfs
Sun12/24 10:00 pm 3.12 ft 327 cfs
Mon12/25 04:00 am 3.08 ft 314 cfs
Mon12/25 10:00 am 3.04 ft 301 cfs
Mon12/25 04:00 pm 3.0 ft 288 cfs
Mon12/25 10:00 pm 2.96 ft 278 cfs
Tue12/26 04:00 am 2.93 ft 268 cfs

Snoqualmie River flood gauge data supplied by the
National Weather Service Northwest River Forecast Center.

Sign up for Floodzilla alerts.